Brownwood, North Carolina
Current Conditions -  °F | °C
As of 11:35 AM on Wednesday 22 Oct 2014 (Local Time) from KTNB Reporting Station
Broken Clouds Broken Clouds  
Wind Chill: 38°   Ceiling: 2900
Heat Index: 44°   Visibility: 10mi
Dew Point: 33°   Wind: 12mph
Humidity: 65%   Direction: 330°NNW
Pressure: 30.13"   Gusts: 24mph
Location:  36.3248°N, 81.6045°W
Report Text: KTNB 221535Z AUTO 33010G21KT 10SM SCT022 BKN029 07/01 A3013 RMK AO2 T00680006
Loading
Personal Weather Stations






























Interactive Weather Map
Tropical Storm Tracking
New forecast layout! Learn more

10-Day Weather Forecast

Advertisements
Track Severe Weather on mobile